createdAt,value
2018-06-20T00:00:41.116Z,359.93
2018-06-20T00:03:20.743Z,363.93
2018-06-20T00:06:01.959Z,380.60
2018-06-20T00:08:44.144Z,379.20
2018-06-20T00:11:25.426Z,354.30
2018-06-20T00:14:06.660Z,369.57
2018-06-20T00:16:46.420Z,370.37
2018-06-20T00:19:26.098Z,403.57
2018-06-20T00:22:03.602Z,411.90
2018-06-20T00:24:42.495Z,407.67
2018-06-20T00:27:22.240Z,408.50
2018-06-20T00:30:02.297Z,424.77
2018-06-20T00:32:41.817Z,511.00
2018-06-20T00:35:21.556Z,426.30
2018-06-20T00:38:01.742Z,439.80
2018-06-20T00:40:41.146Z,492.87
2018-06-20T00:43:25.159Z,552.53
2018-06-20T00:46:04.997Z,638.30
2018-06-20T00:48:44.881Z,701.23
2018-06-20T00:51:24.178Z,553.27
2018-06-20T00:54:02.515Z,587.53
2018-06-20T00:56:42.222Z,697.23
2018-06-20T00:59:22.100Z,664.23
2018-06-20T01:02:01.754Z,779.20
2018-06-20T01:04:41.359Z,769.97
2018-06-20T01:07:20.758Z,741.57
2018-06-20T01:10:00.048Z,805.23
2018-06-20T01:12:40.785Z,841.77
2018-06-20T01:15:26.659Z,829.93
2018-06-20T01:18:08.777Z,810.67
2018-06-20T01:20:50.266Z,747.47
2018-06-20T01:23:34.244Z,737.73
2018-06-20T01:26:15.104Z,778.03
2018-06-20T01:28:58.161Z,833.63
2018-06-20T01:31:37.759Z,860.13
2018-06-20T01:34:17.777Z,798.20
2018-06-20T01:36:58.782Z,803.80
2018-06-20T01:39:38.919Z,783.17
2018-06-20T01:42:18.340Z,828.63
2018-06-20T01:44:59.300Z,819.83
2018-06-20T01:47:40.404Z,839.10
2018-06-20T01:50:21.484Z,847.80
2018-06-20T01:53:02.683Z,751.10
2018-06-20T01:55:43.978Z,752.07
2018-06-20T01:58:25.345Z,857.10
2018-06-20T02:01:05.762Z,835.07
2018-06-20T02:03:47.895Z,817.17
2018-06-20T02:06:29.178Z,860.90
2018-06-20T02:09:08.536Z,821.53
2018-06-20T02:11:48.623Z,723.93
2018-06-20T02:14:28.302Z,757.30
2018-06-20T02:17:10.123Z,730.77
2018-06-20T02:19:49.419Z,714.30
2018-06-20T02:22:30.888Z,684.97
2018-06-20T02:25:10.639Z,739.63
2018-06-20T02:27:49.736Z,685.23
2018-06-20T02:30:30.104Z,569.03
2018-06-20T02:33:08.961Z,551.33
2018-06-20T02:35:48.181Z,547.87
2018-06-20T02:38:28.017Z,573.03
2018-06-20T02:41:07.576Z,592.17
2018-06-20T02:43:48.341Z,612.37
2018-06-20T02:46:28.260Z,639.87
2018-06-20T02:49:07.804Z,639.77
2018-06-20T02:51:48.778Z,620.17
2018-06-20T02:54:30.260Z,619.50
2018-06-20T02:57:09.465Z,584.83
2018-06-20T02:59:49.082Z,586.23
2018-06-20T03:02:29.339Z,559.00
2018-06-20T03:05:09.053Z,555.60
2018-06-20T03:07:49.396Z,588.50
2018-06-20T03:10:28.802Z,563.33
2018-06-20T03:13:09.660Z,587.90
2018-06-20T03:15:49.180Z,609.57
2018-06-20T03:18:28.756Z,584.30
2018-06-20T03:21:09.241Z,593.77
2018-06-20T03:23:46.597Z,570.30
2018-06-20T03:26:26.806Z,572.80
2018-06-20T03:29:05.778Z,562.83
2018-06-20T03:31:47.129Z,581.93
2018-06-20T03:34:26.562Z,568.07
2018-06-20T03:37:06.055Z,579.57
2018-06-20T03:39:46.101Z,580.90
2018-06-20T03:42:26.705Z,586.20
2018-06-20T03:45:06.205Z,605.97
2018-06-20T03:47:44.820Z,579.27
2018-06-20T03:50:24.980Z,587.03
2018-06-20T03:53:03.000Z,591.73
2018-06-20T03:55:45.853Z,589.57
2018-06-20T03:58:26.114Z,597.13
2018-06-20T04:01:04.979Z,589.33
2018-06-20T04:03:45.382Z,606.03
2018-06-20T04:06:24.819Z,613.33
2018-06-20T04:09:06.817Z,618.00
2018-06-20T04:11:46.822Z,622.00
2018-06-20T04:14:28.561Z,616.83
2018-06-20T04:17:09.228Z,643.00
2018-06-20T04:19:51.122Z,659.07
2018-06-20T04:22:29.820Z,638.67
2018-06-20T04:25:11.263Z,691.17
2018-06-20T04:27:55.723Z,710.60
2018-06-20T04:30:36.945Z,791.17
2018-06-20T04:33:17.164Z,749.00
2018-06-20T04:35:58.601Z,748.33
2018-06-20T04:38:39.227Z,817.60
2018-06-20T04:41:24.041Z,753.93
2018-06-20T04:44:08.062Z,825.60
2018-06-20T04:46:48.780Z,786.97
2018-06-20T04:49:29.120Z,802.27
2018-06-20T04:52:07.757Z,854.37
2018-06-20T04:54:50.901Z,893.63
2018-06-20T04:57:34.603Z,919.63
2018-06-20T05:00:14.423Z,855.27
2018-06-20T05:02:55.089Z,931.90
2018-06-20T05:05:34.435Z,947.93
2018-06-20T05:08:13.264Z,975.53
2018-06-20T05:10:53.161Z,912.87
2018-06-20T05:13:34.198Z,870.23
2018-06-20T05:16:14.177Z,990.80
2018-06-20T05:18:56.520Z,985.07
2018-06-20T05:21:37.464Z,672.50
2018-06-20T05:24:20.936Z,888.10
2018-06-20T05:27:00.963Z,723.27
2018-06-20T05:29:39.360Z,795.93
2018-06-20T05:32:17.942Z,703.60
2018-06-20T05:34:56.842Z,774.33
2018-06-20T05:37:34.442Z,607.53
2018-06-20T05:40:12.467Z,713.57
2018-06-20T05:42:57.357Z,801.80
2018-06-20T05:45:36.542Z,918.20
2018-06-20T05:48:15.017Z,930.70
2018-06-20T05:50:56.938Z,845.90
2018-06-20T05:53:42.079Z,945.00
2018-06-20T05:56:21.339Z,999.90
2018-06-20T05:59:02.836Z,999.90
2018-06-20T06:01:41.957Z,999.90
2018-06-20T06:04:21.302Z,988.50
2018-06-20T06:07:04.261Z,966.03
2018-06-20T06:09:47.979Z,682.87
2018-06-20T06:12:29.923Z,899.27
2018-06-20T06:15:11.467Z,894.83
2018-06-20T06:17:55.558Z,999.90
2018-06-20T06:20:37.061Z,999.90
2018-06-20T06:23:17.457Z,936.40
2018-06-20T06:26:03.463Z,999.90
2018-06-20T06:28:43.520Z,999.90
2018-06-20T06:31:22.624Z,650.00
2018-06-20T06:34:01.247Z,604.17
2018-06-20T06:36:43.084Z,676.27
2018-06-20T06:39:26.117Z,867.80
2018-06-20T06:42:15.300Z,687.57
2018-06-20T06:44:57.540Z,675.30
2018-06-20T06:47:39.197Z,978.47
2018-06-20T06:50:21.438Z,650.17
2018-06-20T06:53:06.401Z,267.93
2018-06-20T06:55:53.079Z,739.47
2018-06-20T06:58:35.942Z,735.27
2018-06-20T07:01:16.642Z,429.57
2018-06-20T07:03:57.201Z,183.87
2018-06-20T07:06:37.499Z,726.13
2018-06-20T07:09:21.089Z,621.43
2018-06-20T07:12:07.380Z,572.58
2018-06-20T07:14:45.818Z,43.02
2018-06-20T07:17:33.145Z,80.15
2018-06-20T07:20:13.701Z,156.40
2018-06-20T07:22:53.158Z,121.72
2018-06-20T07:25:35.038Z,53.70
2018-06-20T07:28:13.962Z,66.20
2018-06-20T07:30:57.566Z,90.77
2018-06-20T07:33:41.340Z,112.85
2018-06-20T07:36:19.934Z,118.47
2018-06-20T07:39:16.399Z,172.28
2018-06-20T07:44:45.983Z,77.10
2018-06-20T07:47:27.826Z,71.22
2018-06-20T07:50:19.036Z,74.22
2018-06-20T08:07:49.041Z,123.58
2018-06-20T08:10:28.981Z,109.72
2018-06-20T08:13:12.460Z,127.15
2018-06-20T08:15:56.382Z,103.45
2018-06-20T08:18:39.222Z,147.50
2018-06-20T08:21:20.859Z,151.82
2018-06-20T08:24:01.139Z,168.95
2018-06-20T08:26:39.341Z,129.60
2018-06-20T08:29:17.896Z,144.87
2018-06-20T08:31:56.756Z,135.03
2018-06-20T08:34:36.062Z,185.37
2018-06-20T08:37:15.426Z,248.20
2018-06-20T08:39:57.906Z,250.13
2018-06-20T08:42:37.862Z,144.17
2018-06-20T08:45:17.097Z,120.47
2018-06-20T08:47:57.360Z,156.22
2018-06-20T08:50:39.345Z,147.17
2018-06-20T08:53:22.839Z,156.05
2018-06-20T08:56:04.983Z,140.00
2018-06-20T08:58:50.596Z,110.52
2018-06-20T09:01:31.980Z,116.88
2018-06-20T09:04:16.859Z,109.63
2018-06-20T09:07:04.735Z,123.97
2018-06-20T09:09:53.866Z,124.07
2018-06-20T09:12:38.277Z,111.10
2018-06-20T09:15:20.414Z,103.00
2018-06-20T09:18:14.665Z,75.37
2018-06-20T09:20:58.963Z,104.07
2018-06-20T09:23:43.128Z,82.12
2018-06-20T09:26:26.381Z,85.92
2018-06-20T09:29:04.277Z,70.00
2018-06-20T09:31:42.646Z,83.12
2018-06-20T09:34:24.499Z,69.20
2018-06-20T09:37:09.821Z,75.60
2018-06-20T09:39:51.957Z,102.82
2018-06-20T09:42:30.722Z,91.90
2018-06-20T09:45:11.342Z,99.03
2018-06-20T09:47:54.436Z,102.27
2018-06-20T09:50:36.373Z,77.08
2018-06-20T09:53:18.918Z,63.63
2018-06-20T09:56:02.656Z,71.70
2018-06-20T09:58:42.240Z,111.90
2018-06-20T10:01:24.540Z,85.42
2018-06-20T10:04:08.400Z,84.22
2018-06-20T10:06:55.687Z,78.95
2018-06-20T10:09:40.901Z,99.13
2018-06-20T10:12:25.884Z,74.15
2018-06-20T10:15:04.874Z,98.92
2018-06-20T10:17:46.479Z,93.55
2018-06-20T10:20:35.499Z,77.70
2018-06-20T10:23:14.215Z,118.53
2018-06-20T10:25:56.082Z,77.03
2018-06-20T10:28:35.298Z,83.62
2018-06-20T10:31:14.504Z,101.33
2018-06-20T10:33:56.218Z,124.22
2018-06-20T10:36:42.319Z,89.67
2018-06-20T10:39:25.736Z,83.65
2018-06-20T10:42:03.102Z,105.65
2018-06-20T10:44:44.379Z,98.97
2018-06-20T10:47:26.821Z,90.67
2018-06-20T10:50:05.898Z,113.52
2018-06-20T10:52:45.920Z,77.75
2018-06-20T10:55:26.863Z,115.65
2018-06-20T10:58:11.601Z,96.90
2018-06-20T11:00:58.306Z,107.80
2018-06-20T11:03:42.643Z,66.62
2018-06-20T11:06:34.501Z,65.20
2018-06-20T11:09:19.937Z,58.55
2018-06-20T11:12:01.999Z,83.52
2018-06-20T11:14:42.180Z,85.00
2018-06-20T11:17:28.117Z,129.95
2018-06-20T11:20:12.462Z,114.97
2018-06-20T11:22:51.358Z,173.07
2018-06-20T11:25:29.983Z,223.20
2018-06-20T11:28:15.718Z,232.77
2018-06-20T11:30:54.164Z,200.70
2018-06-20T11:33:33.703Z,159.97
2018-06-20T11:36:19.443Z,121.17
2018-06-20T11:39:01.308Z,123.33
2018-06-20T11:41:41.379Z,125.47
2018-06-20T12:16:58.635Z,112.50
2018-06-20T12:19:42.000Z,77.00
2018-06-20T12:22:25.518Z,177.93
2018-06-20T12:25:09.522Z,161.82
2018-06-20T12:27:56.558Z,132.10
2018-06-20T12:30:43.480Z,148.78
2018-06-20T14:11:09.196Z,317.62
2018-06-20T14:13:53.719Z,349.30
2018-06-20T14:16:35.080Z,312.32
2018-06-20T14:19:23.121Z,322.40
2018-06-20T14:22:05.809Z,345.02
2018-06-20T14:24:45.578Z,337.72
2018-06-20T14:27:27.361Z,322.75
2018-06-20T14:30:08.879Z,358.32
2018-06-20T14:32:54.041Z,338.18
2018-06-20T14:35:42.220Z,371.10
2018-06-20T14:38:25.541Z,363.68
2018-06-20T14:41:09.302Z,337.82
2018-06-20T14:43:56.476Z,341.17
2018-06-20T14:46:38.145Z,347.42
2018-06-20T14:49:21.104Z,348.15
2018-06-20T14:52:01.979Z,318.48
2018-06-20T14:54:42.083Z,321.15
2018-06-20T14:57:20.825Z,315.87
2018-06-20T15:00:01.161Z,300.70
2018-06-20T15:02:41.238Z,289.55
2018-06-20T15:05:20.739Z,269.98
2018-06-20T15:08:06.181Z,284.37
2018-06-20T15:10:50.866Z,297.07
2018-06-20T15:13:36.976Z,303.27
2018-06-20T15:16:19.639Z,284.13
2018-06-20T15:19:06.543Z,228.70
2018-06-20T15:21:46.299Z,269.07
2018-06-20T15:24:28.304Z,250.85
2018-06-20T15:27:12.140Z,224.67
2018-06-20T15:29:56.822Z,193.02
2018-06-20T15:32:43.304Z,217.65
2018-06-20T15:35:29.139Z,243.67
2018-06-20T15:38:22.022Z,233.65
2018-06-20T15:41:08.181Z,158.27
2018-06-20T15:43:47.181Z,177.72
2018-06-20T15:46:33.200Z,188.22
2018-06-20T15:49:16.422Z,192.13
2018-06-20T15:51:54.725Z,233.07
2018-06-20T15:54:41.838Z,225.82
2018-06-20T15:57:23.700Z,167.50
2018-06-20T16:00:07.342Z,208.50
2018-06-20T16:02:57.220Z,187.25
2018-06-20T16:05:40.281Z,126.53
2018-06-20T16:08:22.180Z,198.57
2018-06-20T16:11:02.038Z,195.32
2018-06-20T16:13:43.698Z,144.85
2018-06-20T16:16:22.845Z,203.10
2018-06-20T16:19:13.181Z,130.10
2018-06-20T16:21:56.019Z,152.53
2018-06-20T16:24:40.182Z,122.20
2018-06-20T16:27:27.120Z,183.97
2018-06-20T16:30:12.760Z,120.05
2018-06-20T16:32:58.979Z,126.50
2018-06-20T16:35:42.919Z,216.48
2018-06-20T16:38:23.319Z,131.50
2018-06-20T16:41:04.340Z,122.58
2018-06-20T16:43:43.253Z,109.70
2018-06-20T16:46:24.581Z,118.90
2018-06-20T16:49:04.424Z,129.23
2018-06-20T16:51:44.457Z,192.10
2018-06-20T16:54:20.683Z,145.00
2018-06-20T16:57:01.844Z,172.10
2018-06-20T16:59:50.386Z,82.67
2018-06-20T17:02:32.176Z,83.52
2018-06-20T17:05:12.918Z,110.32
2018-06-20T17:07:55.880Z,89.50
2018-06-20T17:10:39.236Z,95.22
2018-06-20T17:13:24.781Z,80.77
2018-06-20T17:16:08.960Z,122.00
2018-06-20T17:18:56.944Z,112.95
2018-06-20T17:21:38.516Z,140.37
2018-06-20T17:24:22.242Z,141.77
2018-06-20T17:27:01.922Z,155.63
2018-06-20T17:29:40.059Z,127.67
2018-06-20T17:32:21.265Z,121.37
2018-06-20T17:35:07.002Z,108.45
2018-06-20T17:37:55.663Z,96.22
2018-06-20T17:40:34.185Z,86.87
2018-06-20T17:43:15.963Z,107.03
2018-06-20T17:45:57.603Z,129.82
2018-06-20T17:48:43.339Z,171.22
2018-06-20T17:51:29.688Z,227.20
2018-06-20T17:54:16.325Z,297.45
2018-06-20T17:56:55.937Z,217.03
2018-06-20T17:59:34.582Z,256.50
2018-06-20T18:02:14.783Z,219.18
2018-06-20T18:05:00.658Z,182.68
2018-06-20T18:07:45.121Z,185.18
2018-06-20T18:10:29.459Z,159.12
2018-06-20T18:13:23.680Z,157.43
2018-06-20T18:16:11.058Z,103.83
2018-06-20T18:18:54.359Z,130.93
2018-06-20T18:21:41.477Z,133.03
2018-06-20T18:24:26.081Z,110.30
2018-06-20T18:27:07.065Z,128.42
2018-06-20T18:29:54.126Z,128.40
2018-06-20T18:32:32.625Z,143.15
2018-06-20T18:35:12.676Z,217.87
2018-06-20T18:37:56.141Z,79.20
2018-06-20T18:40:35.880Z,81.60
2018-06-20T18:43:13.643Z,89.72
2018-06-20T18:45:54.784Z,194.65
2018-06-20T18:48:35.121Z,322.88
2018-06-20T18:51:18.883Z,225.62
2018-06-20T18:54:01.857Z,403.00
2018-06-20T18:56:39.821Z,301.82
2018-06-20T18:59:26.995Z,345.25
2018-06-20T19:02:12.523Z,463.30
2018-06-20T19:05:00.900Z,550.67
2018-06-20T19:07:45.778Z,531.25
2018-06-20T19:10:24.058Z,443.60
2018-06-20T19:13:09.447Z,421.15
2018-06-20T19:15:54.521Z,367.27
2018-06-20T19:18:37.065Z,292.60
2018-06-20T19:21:18.375Z,197.28
2018-06-20T19:23:58.321Z,139.82
2018-06-20T19:26:41.642Z,114.08
2018-06-20T19:29:24.567Z,76.33
2018-06-20T19:32:05.183Z,85.67
2018-06-20T19:34:45.348Z,86.17
2018-06-20T19:37:27.379Z,88.53
2018-06-20T19:40:11.520Z,98.63
2018-06-20T19:42:52.097Z,124.30
2018-06-20T19:45:33.795Z,149.30
2018-06-20T19:48:15.963Z,159.17
2018-06-20T19:51:01.839Z,187.10
2018-06-20T19:53:45.829Z,211.87
2018-06-20T19:56:28.160Z,180.83
2018-06-20T19:59:08.021Z,300.87
2018-06-20T20:01:48.028Z,311.50
2018-06-20T20:04:28.645Z,315.13
2018-06-20T20:07:13.623Z,703.10
2018-06-20T20:09:54.882Z,913.30
2018-06-20T20:12:35.423Z,999.90
2018-06-20T20:15:18.078Z,999.90
2018-06-20T20:17:56.120Z,999.90
2018-06-20T20:20:36.113Z,999.90
2018-06-20T20:23:17.464Z,999.90
2018-06-20T20:26:01.965Z,999.90
2018-06-20T20:28:43.382Z,999.90
2018-06-20T20:31:25.338Z,934.87
2018-06-20T20:34:05.102Z,757.23
2018-06-20T20:36:44.759Z,626.13
2018-06-20T20:39:24.666Z,378.73
2018-06-20T20:42:08.520Z,217.00
2018-06-20T20:44:50.139Z,254.83
2018-06-20T20:47:33.741Z,515.17
2018-06-20T20:50:14.208Z,697.73
2018-06-20T20:52:53.776Z,744.30
2018-06-20T20:55:34.065Z,773.10
2018-06-20T20:58:13.879Z,741.73
2018-06-20T22:34:27.457Z,999.90
2018-06-20T22:37:08.526Z,999.90
2018-06-20T22:39:47.823Z,999.90
2018-06-20T22:42:27.527Z,999.90
2018-06-20T22:45:07.577Z,999.90
2018-06-20T22:47:48.137Z,999.90
2018-06-20T22:50:28.178Z,999.90
2018-06-20T22:53:08.862Z,999.90
